createdAt,value
2022-08-26T00:02:11.247Z,4.15
2022-08-26T00:04:38.771Z,4.00
2022-08-26T00:07:06.194Z,4.13
2022-08-26T00:09:38.889Z,3.92
2022-08-26T00:12:09.342Z,4.10
2022-08-26T00:14:40.140Z,3.90
2022-08-26T00:17:09.846Z,3.97
2022-08-26T00:19:37.905Z,4.07
2022-08-26T00:22:05.336Z,3.90
2022-08-26T00:24:32.895Z,3.85
2022-08-26T00:27:00.522Z,3.95
2022-08-26T00:29:28.546Z,3.63
2022-08-26T00:31:59.501Z,3.58
2022-08-26T00:34:27.059Z,3.60
2022-08-26T00:36:54.595Z,3.42
2022-08-26T00:39:22.273Z,4.03
2022-08-26T00:41:50.647Z,3.80
2022-08-26T00:44:19.677Z,3.83
2022-08-26T00:46:51.673Z,3.78
2022-08-26T00:49:29.604Z,3.50
2022-08-26T00:52:01.107Z,3.30
2022-08-26T00:54:33.335Z,3.50
2022-08-26T00:57:04.901Z,3.50
2022-08-26T00:59:36.426Z,3.95
2022-08-26T01:02:06.822Z,3.95
2022-08-26T01:04:55.867Z,4.20
2022-08-26T01:07:31.309Z,4.20
2022-08-26T01:10:06.645Z,4.35
2022-08-26T01:15:10.235Z,3.90
2022-08-26T01:17:42.133Z,3.88
2022-08-26T01:20:23.986Z,4.22
2022-08-26T01:22:57.722Z,3.88
2022-08-26T01:25:30.157Z,4.03
2022-08-26T01:28:02.425Z,4.13
2022-08-26T01:30:31.439Z,3.92
2022-08-26T01:33:03.197Z,4.20
2022-08-26T01:35:30.886Z,3.97
2022-08-26T01:38:00.717Z,3.65
2022-08-26T01:40:35.792Z,3.35
2022-08-26T01:43:07.733Z,3.70
2022-08-26T01:45:40.447Z,3.55
2022-08-26T01:48:12.344Z,2.78
2022-08-26T01:50:42.849Z,3.47
2022-08-26T01:53:15.081Z,3.03
2022-08-26T01:55:46.612Z,3.47
2022-08-26T01:58:23.666Z,3.30
2022-08-26T02:00:52.092Z,3.38
2022-08-26T02:03:22.721Z,3.20
2022-08-26T02:05:57.579Z,3.50
2022-08-26T02:08:35.953Z,3.05
2022-08-26T02:11:03.930Z,3.40
2022-08-26T02:13:34.019Z,3.10
2022-08-26T02:16:03.952Z,3.40
2022-08-26T02:18:35.452Z,3.50
2022-08-26T02:21:06.737Z,3.15
2022-08-26T02:23:34.358Z,3.28
2022-08-26T02:26:12.028Z,3.00
2022-08-26T02:29:01.823Z,3.00
2022-08-26T02:31:29.598Z,3.20
2022-08-26T02:34:13.293Z,3.47
2022-08-26T02:36:42.743Z,3.00
2022-08-26T02:39:10.238Z,2.83
2022-08-26T02:41:44.914Z,2.72
2022-08-26T02:44:13.233Z,2.92
2022-08-26T02:46:46.764Z,3.10
2022-08-26T02:49:17.162Z,2.90
2022-08-26T02:51:49.563Z,3.30
2022-08-26T02:54:21.459Z,3.00
2022-08-26T02:56:48.961Z,3.20
2022-08-26T02:59:16.345Z,2.85
2022-08-26T03:01:45.282Z,3.50
2022-08-26T03:04:13.384Z,3.40
2022-08-26T03:06:42.654Z,3.38
2022-08-26T03:09:18.639Z,2.92
2022-08-26T03:11:47.212Z,3.50
2022-08-26T03:14:15.226Z,3.30
2022-08-26T03:16:43.352Z,3.53
2022-08-26T03:19:11.497Z,3.17
2022-08-26T03:21:39.387Z,3.30
2022-08-26T03:24:09.818Z,3.20
2022-08-26T03:26:37.476Z,3.17
2022-08-26T03:29:25.177Z,3.10
2022-08-26T03:31:53.609Z,3.05
2022-08-26T03:34:21.608Z,3.17
2022-08-26T03:36:50.231Z,3.17
2022-08-26T03:39:17.799Z,3.30
2022-08-26T03:41:45.362Z,3.10
2022-08-26T03:44:14.492Z,3.08
2022-08-26T03:46:42.087Z,3.35
2022-08-26T03:49:11.633Z,3.05
2022-08-26T03:51:39.409Z,3.40
2022-08-26T03:54:10.645Z,3.33
2022-08-26T03:56:38.581Z,3.55
2022-08-26T03:59:07.869Z,3.75
2022-08-26T04:01:36.187Z,3.35
2022-08-26T04:04:04.091Z,3.72
2022-08-26T04:06:38.918Z,3.03
2022-08-26T04:09:10.157Z,3.42
2022-08-26T04:11:39.685Z,3.53
2022-08-26T04:14:13.551Z,3.30
2022-08-26T04:16:42.646Z,3.40
2022-08-26T04:19:14.870Z,3.78
2022-08-26T04:21:42.932Z,3.88
2022-08-26T04:24:12.962Z,3.92
2022-08-26T04:26:43.644Z,3.92
2022-08-26T04:29:21.434Z,3.47
2022-08-26T04:31:49.377Z,3.50
2022-08-26T04:34:17.923Z,3.35
2022-08-26T04:36:45.343Z,3.80
2022-08-26T04:39:19.716Z,3.55
2022-08-26T04:41:50.273Z,3.35
2022-08-26T04:44:18.743Z,3.60
2022-08-26T04:46:46.263Z,3.92
2022-08-26T04:49:14.284Z,3.53
2022-08-26T04:51:41.801Z,3.80
2022-08-26T04:54:11.699Z,4.53
2022-08-26T04:56:41.512Z,3.78
2022-08-26T04:59:17.102Z,3.97
2022-08-26T05:01:51.616Z,3.88
2022-08-26T05:04:20.661Z,3.80
2022-08-26T05:06:50.666Z,3.92
2022-08-26T05:09:20.281Z,3.50
2022-08-26T05:11:52.154Z,4.03
2022-08-26T05:14:23.209Z,4.10
2022-08-26T05:16:51.717Z,3.92
2022-08-26T05:19:19.564Z,4.07
2022-08-26T05:21:48.563Z,3.90
2022-08-26T05:24:17.144Z,4.35
2022-08-26T05:26:46.477Z,4.00
2022-08-26T05:29:14.172Z,3.50
2022-08-26T05:31:41.937Z,3.78
2022-08-26T05:34:11.959Z,4.15
2022-08-26T05:36:40.188Z,3.97
2022-08-26T05:39:08.178Z,4.07
2022-08-26T05:41:41.757Z,4.07
2022-08-26T05:44:15.237Z,4.00
2022-08-26T05:46:44.899Z,3.65
2022-08-26T05:49:15.858Z,4.10
2022-08-26T05:51:47.929Z,4.35
2022-08-26T05:54:21.780Z,4.85
2022-08-26T05:56:51.372Z,4.80
2022-08-26T05:59:23.895Z,4.63
2022-08-26T06:01:53.419Z,4.70
2022-08-26T06:04:22.032Z,4.82
2022-08-26T06:06:52.128Z,4.65
2022-08-26T06:09:19.717Z,4.45
2022-08-26T06:11:47.331Z,4.20
2022-08-26T06:14:15.453Z,4.80
2022-08-26T06:16:45.058Z,4.65
2022-08-26T06:19:15.130Z,4.50
2022-08-26T06:21:46.366Z,4.78
2022-08-26T06:24:33.463Z,4.18
2022-08-26T06:27:04.757Z,4.40
2022-08-26T06:29:34.772Z,4.30
2022-08-26T06:32:04.702Z,4.18
2022-08-26T06:34:32.886Z,4.30
2022-08-26T06:37:03.283Z,4.00
2022-08-26T06:39:31.704Z,4.00
2022-08-26T06:42:02.539Z,3.35
2022-08-26T06:45:38.968Z,3.58
2022-08-26T06:52:51.269Z,2.60
2022-08-26T07:01:02.604Z,3.20
2022-08-26T07:04:47.856Z,2.70
2022-08-26T07:07:54.984Z,2.72
2022-08-26T07:24:20.750Z,2.25
2022-08-26T07:26:44.706Z,2.53
2022-08-26T07:29:33.794Z,2.35
2022-08-26T07:32:50.261Z,2.30
2022-08-26T07:42:55.449Z,2.30
2022-08-26T07:46:27.227Z,2.40
2022-08-26T07:49:45.185Z,2.50
2022-08-26T07:52:28.749Z,2.67
2022-08-26T07:56:07.466Z,2.38
2022-08-26T07:58:36.512Z,2.30
2022-08-26T08:01:05.230Z,2.35
2022-08-26T08:09:17.068Z,2.30
2022-08-26T08:11:49.588Z,2.13
2022-08-26T08:23:28.348Z,2.70
2022-08-26T08:26:14.095Z,2.28
2022-08-26T08:28:47.968Z,2.17
2022-08-26T08:34:18.156Z,2.67
2022-08-26T08:36:54.944Z,2.40
2022-08-26T08:40:13.506Z,2.42
2022-08-26T08:43:12.906Z,2.78
2022-08-26T08:45:52.920Z,2.63
2022-08-26T08:49:32.349Z,2.50
2022-08-26T08:52:22.376Z,3.00
2022-08-26T08:54:56.569Z,2.92
2022-08-26T08:57:56.176Z,2.80
2022-08-26T09:00:42.739Z,2.45
2022-08-26T09:03:29.421Z,2.60
2022-08-26T09:06:17.007Z,2.65
2022-08-26T09:08:50.693Z,2.60
2022-08-26T09:11:29.143Z,2.55
2022-08-26T09:14:00.369Z,2.90
2022-08-26T09:16:55.185Z,2.90
2022-08-26T09:23:43.489Z,2.75
2022-08-26T09:26:42.636Z,2.67
2022-08-26T09:29:26.381Z,3.30
2022-08-26T09:32:24.459Z,3.28
2022-08-26T09:35:02.582Z,3.40
2022-08-26T09:41:02.393Z,3.38
2022-08-26T09:43:33.009Z,3.47
2022-08-26T09:50:31.910Z,3.55
2022-08-26T09:53:28.553Z,3.70
2022-08-26T09:56:11.636Z,3.63
2022-08-26T09:58:42.239Z,3.53
2022-08-26T10:01:36.460Z,3.50
2022-08-26T10:04:16.579Z,4.05
2022-08-26T10:06:59.328Z,4.00
2022-08-26T10:09:28.937Z,4.38
2022-08-26T10:12:08.506Z,4.40
2022-08-26T10:17:38.424Z,4.10
2022-08-26T10:20:22.581Z,4.20
2022-08-26T10:23:47.330Z,3.97
2022-08-26T10:26:33.683Z,3.88
2022-08-26T10:29:07.856Z,3.92
2022-08-26T10:31:43.275Z,3.65
2022-08-26T10:34:12.327Z,4.28
2022-08-26T10:37:15.527Z,4.40
2022-08-26T10:39:57.303Z,4.30
2022-08-26T10:42:37.808Z,3.60
2022-08-26T10:45:25.276Z,4.13
2022-08-26T10:48:00.233Z,3.90
2022-08-26T10:54:39.601Z,3.83
2022-08-26T10:57:22.920Z,4.47
2022-08-26T11:00:27.570Z,3.90
2022-08-26T11:03:22.960Z,3.95
2022-08-26T11:06:20.192Z,3.75
2022-08-26T11:08:56.113Z,3.75
2022-08-26T11:11:42.077Z,3.83
2022-08-26T11:14:29.020Z,4.10
2022-08-26T11:17:01.166Z,3.60
2022-08-26T11:20:00.332Z,3.72
2022-08-26T11:22:39.766Z,3.75
2022-08-26T11:25:18.844Z,3.90
2022-08-26T11:27:50.841Z,3.88
2022-08-26T11:30:57.736Z,3.90
2022-08-26T11:34:01.381Z,4.25
2022-08-26T11:37:12.516Z,4.15
2022-08-26T11:39:57.043Z,3.90
2022-08-26T11:45:02.491Z,4.03
2022-08-26T11:50:10.084Z,3.80
2022-08-26T11:52:39.854Z,3.67
2022-08-26T11:55:14.556Z,3.95
2022-08-26T11:58:51.286Z,4.53
2022-08-26T12:01:40.145Z,3.88
2022-08-26T12:05:00.525Z,4.20
2022-08-26T12:07:36.109Z,3.90
2022-08-26T12:10:06.934Z,3.95
2022-08-26T12:12:42.600Z,4.25
2022-08-26T12:15:37.314Z,3.80
2022-08-26T12:18:29.501Z,4.25
2022-08-26T12:21:42.941Z,3.83
2022-08-26T12:24:10.640Z,3.78
2022-08-26T12:26:41.549Z,3.63
2022-08-26T12:29:26.945Z,3.63
2022-08-26T12:32:13.669Z,4.13
2022-08-26T12:35:12.118Z,3.80
2022-08-26T12:37:51.255Z,4.03
2022-08-26T12:40:50.572Z,3.75
2022-08-26T12:43:56.900Z,3.80
2022-08-26T12:46:29.303Z,4.13
2022-08-26T12:49:03.484Z,4.03
2022-08-26T12:51:42.007Z,4.00
2022-08-26T12:54:41.239Z,3.92
2022-08-26T12:57:13.468Z,4.00
2022-08-26T12:59:41.346Z,3.63
2022-08-26T13:02:11.598Z,3.80
2022-08-26T13:04:43.206Z,4.03
2022-08-26T13:07:24.383Z,3.70
2022-08-26T13:09:57.467Z,4.45
2022-08-26T13:12:33.731Z,3.88
2022-08-26T13:15:06.102Z,4.13
2022-08-26T13:20:04.811Z,3.80
2022-08-26T13:22:32.868Z,3.72
2022-08-26T13:25:00.627Z,3.85
2022-08-26T13:27:33.224Z,3.47
2022-08-26T13:30:05.059Z,4.00
2022-08-26T13:32:37.751Z,3.20
2022-08-26T13:35:08.648Z,4.10
2022-08-26T13:37:45.374Z,3.80
2022-08-26T13:40:14.481Z,3.75
2022-08-26T13:42:49.825Z,3.65
2022-08-26T13:45:22.499Z,3.83
2022-08-26T13:47:50.485Z,3.70
2022-08-26T13:50:20.484Z,3.30
2022-08-26T13:52:48.243Z,4.15
2022-08-26T13:55:16.041Z,4.05
2022-08-26T13:57:43.876Z,3.65
2022-08-26T14:00:12.307Z,3.63
2022-08-26T14:02:46.021Z,3.65
2022-08-26T14:05:16.235Z,3.80
2022-08-26T14:07:47.953Z,3.97
2022-08-26T14:10:17.809Z,3.88
2022-08-26T14:12:47.884Z,4.07
2022-08-26T14:15:18.051Z,3.55
2022-08-26T14:17:49.572Z,3.72
2022-08-26T14:20:31.724Z,3.65
2022-08-26T14:23:17.710Z,3.70
2022-08-26T14:25:52.926Z,3.92
2022-08-26T14:28:23.320Z,3.85
2022-08-26T14:30:55.403Z,3.60
2022-08-26T14:33:32.843Z,3.70
2022-08-26T14:36:19.408Z,4.10
2022-08-26T14:38:50.960Z,3.75
2022-08-26T14:41:20.130Z,3.70
2022-08-26T14:44:02.006Z,4.10
2022-08-26T14:46:33.514Z,3.45
2022-08-26T14:49:05.204Z,4.05
2022-08-26T14:52:19.969Z,4.03
2022-08-26T14:54:47.635Z,3.65
2022-08-26T14:57:25.713Z,3.80
2022-08-26T14:59:53.409Z,4.00
2022-08-26T15:02:56.498Z,4.15
2022-08-26T15:05:27.415Z,3.65
2022-08-26T15:07:57.534Z,3.70
2022-08-26T15:10:44.951Z,4.00
2022-08-26T15:13:21.543Z,3.75
2022-08-26T15:15:53.366Z,4.13
2022-08-26T15:18:36.953Z,3.95
2022-08-26T15:21:28.682Z,4.35
2022-08-26T15:23:59.921Z,3.97
2022-08-26T15:26:29.938Z,4.18
2022-08-26T15:29:36.291Z,3.88
2022-08-26T15:32:05.168Z,4.10
2022-08-26T15:34:32.945Z,3.50
2022-08-26T15:37:03.098Z,4.03
2022-08-26T15:39:54.579Z,4.00
2022-08-26T15:42:57.508Z,4.00
2022-08-26T15:46:20.638Z,4.00
2022-08-26T15:49:40.899Z,3.88
2022-08-26T15:52:10.719Z,3.67
2022-08-26T15:55:54.447Z,3.97
2022-08-26T15:58:24.319Z,4.05
2022-08-26T16:00:56.834Z,3.97
2022-08-26T16:03:24.767Z,4.15
2022-08-26T16:05:56.636Z,4.03
2022-08-26T16:08:24.383Z,4.10
2022-08-26T16:10:53.165Z,4.15
2022-08-26T16:13:23.944Z,3.90
2022-08-26T16:15:54.132Z,3.85
2022-08-26T16:18:24.382Z,3.67
2022-08-26T16:21:06.573Z,4.07
2022-08-26T16:23:45.397Z,3.95
2022-08-26T16:26:19.620Z,4.05
2022-08-26T16:28:51.974Z,3.80
2022-08-26T16:31:21.400Z,4.30
2022-08-26T16:33:51.971Z,4.20
2022-08-26T16:36:25.861Z,4.10
2022-08-26T16:38:58.259Z,4.60
2022-08-26T16:41:29.156Z,4.25
2022-08-26T16:44:53.973Z,5.00
2022-08-26T16:47:23.240Z,4.68
2022-08-26T16:49:51.440Z,4.18
2022-08-26T16:52:21.521Z,4.75
2022-08-26T16:54:53.247Z,4.22
2022-08-26T16:57:28.202Z,4.35
2022-08-26T16:59:56.029Z,4.38
2022-08-26T17:02:29.328Z,4.38
2022-08-26T17:04:57.217Z,4.38
2022-08-26T17:07:27.295Z,4.25
2022-08-26T17:09:55.894Z,4.85
2022-08-26T17:12:28.453Z,4.60
2022-08-26T17:14:57.492Z,4.10
2022-08-26T17:17:29.768Z,4.47
2022-08-26T17:19:57.782Z,4.65
2022-08-26T17:22:31.515Z,4.07
2022-08-26T17:25:34.167Z,4.47
2022-08-26T17:28:01.998Z,4.28
2022-08-26T17:30:30.896Z,4.30
2022-08-26T17:33:10.796Z,3.97
2022-08-26T17:35:39.039Z,4.13
2022-08-26T17:38:07.281Z,4.10
2022-08-26T17:40:39.822Z,4.30
2022-08-26T17:43:12.508Z,4.20
2022-08-26T17:45:40.735Z,4.00
2022-08-26T17:48:10.811Z,4.35
2022-08-26T17:50:41.274Z,4.43
2022-08-26T17:53:12.732Z,4.15
2022-08-26T17:55:50.238Z,3.90
2022-08-26T17:58:20.398Z,4.22
2022-08-26T18:01:29.895Z,4.35
2022-08-26T18:04:00.423Z,4.32
2022-08-26T18:07:23.037Z,4.68
2022-08-26T18:09:50.947Z,4.50
2022-08-26T18:12:18.577Z,4.18
2022-08-26T18:15:27.518Z,4.05
2022-08-26T18:17:58.369Z,4.07
2022-08-26T18:20:26.136Z,4.22
2022-08-26T18:22:54.443Z,4.65
2022-08-26T18:25:22.346Z,4.63
2022-08-26T18:27:52.228Z,4.03
2022-08-26T18:30:21.581Z,4.30
2022-08-26T18:32:50.207Z,5.00
2022-08-26T18:35:25.489Z,4.50
2022-08-26T18:39:01.488Z,4.57
2022-08-26T18:41:32.516Z,4.70
2022-08-26T18:44:00.512Z,5.10
2022-08-26T18:46:36.513Z,5.15
2022-08-26T18:49:22.609Z,4.97
2022-08-26T18:51:55.407Z,3.97
2022-08-26T18:54:26.089Z,4.70
2022-08-26T18:57:28.445Z,4.55
2022-08-26T18:59:56.335Z,4.50
2022-08-26T19:02:24.598Z,4.35
2022-08-26T19:05:02.241Z,5.25
2022-08-26T19:07:30.336Z,4.65
2022-08-26T19:09:58.027Z,4.88
2022-08-26T19:16:18.704Z,4.68
2022-08-26T19:18:47.453Z,4.82
2022-08-26T19:21:40.636Z,4.75
2022-08-26T19:24:15.383Z,4.85
2022-08-26T19:26:45.705Z,4.60
2022-08-26T19:29:15.289Z,5.07
2022-08-26T19:31:47.932Z,5.20
2022-08-26T19:34:20.951Z,5.25
2022-08-26T19:36:49.557Z,4.50
2022-08-26T19:39:17.586Z,5.25
2022-08-26T19:42:52.236Z,5.53
2022-08-26T19:45:25.769Z,5.25
2022-08-26T19:47:54.015Z,5.03
2022-08-26T19:50:22.584Z,5.57
2022-08-26T19:52:50.229Z,4.53
2022-08-26T19:55:19.250Z,5.50
2022-08-26T19:57:47.055Z,4.82
2022-08-26T20:00:30.590Z,4.45
2022-08-26T20:03:29.194Z,5.10
2022-08-26T20:05:58.205Z,5.63
2022-08-26T20:08:26.043Z,4.90
2022-08-26T20:10:55.296Z,4.95
2022-08-26T20:13:28.469Z,5.07
2022-08-26T20:16:41.053Z,5.47
2022-08-26T20:19:28.716Z,5.10
2022-08-26T20:21:56.323Z,4.97
2022-08-26T20:24:26.445Z,5.18
2022-08-26T20:26:58.663Z,4.97
2022-08-26T20:30:41.536Z,5.32
2022-08-26T20:34:10.380Z,5.93
2022-08-26T20:36:39.698Z,5.32
2022-08-26T20:39:11.847Z,5.35
2022-08-26T20:41:44.534Z,5.13
2022-08-26T20:44:13.937Z,5.43
2022-08-26T20:46:41.755Z,4.65
2022-08-26T20:49:09.797Z,5.20
2022-08-26T20:51:38.015Z,5.45
2022-08-26T20:54:07.511Z,4.50
2022-08-26T20:56:35.935Z,5.18
2022-08-26T20:59:08.093Z,5.30
2022-08-26T21:01:42.175Z,5.05
2022-08-26T21:04:17.717Z,4.88
2022-08-26T21:06:48.993Z,5.28
2022-08-26T21:09:23.014Z,5.18
2022-08-26T21:11:57.133Z,5.43
2022-08-26T21:15:13.684Z,4.90
2022-08-26T21:17:44.310Z,5.30
2022-08-26T21:20:12.138Z,5.40
2022-08-26T21:22:39.798Z,5.32
2022-08-26T21:25:10.076Z,5.38
2022-08-26T21:27:38.518Z,5.07
2022-08-26T21:30:06.775Z,5.10
2022-08-26T21:32:34.531Z,5.18
2022-08-26T21:35:02.499Z,5.68
2022-08-26T21:37:30.168Z,5.57
2022-08-26T21:39:59.319Z,5.50
2022-08-26T21:42:27.036Z,5.85
2022-08-26T21:44:57.531Z,5.60
2022-08-26T21:47:25.238Z,5.80
2022-08-26T21:50:01.610Z,5.88
2022-08-26T21:52:29.545Z,5.60
2022-08-26T21:55:01.574Z,5.97
2022-08-26T21:57:31.714Z,5.97
2022-08-26T21:59:59.526Z,5.93
2022-08-26T22:02:29.593Z,5.30
2022-08-26T22:04:57.466Z,5.30
2022-08-26T22:07:25.085Z,5.50
2022-08-26T22:09:52.900Z,5.90
2022-08-26T22:12:20.601Z,5.75
2022-08-26T22:14:49.426Z,5.75
2022-08-26T22:17:47.819Z,5.47
2022-08-26T22:20:16.528Z,5.90
2022-08-26T22:22:45.246Z,5.72
2022-08-26T22:25:13.060Z,5.72
2022-08-26T22:27:43.016Z,6.72
2022-08-26T22:30:11.708Z,6.00
2022-08-26T22:32:40.462Z,6.45
2022-08-26T22:35:28.971Z,5.80
2022-08-26T22:37:57.263Z,5.55
2022-08-26T22:41:09.909Z,5.63
2022-08-26T22:43:38.712Z,5.13
2022-08-26T22:46:09.646Z,5.10
2022-08-26T22:48:40.495Z,5.63
2022-08-26T22:51:19.387Z,5.53
2022-08-26T22:53:47.642Z,5.88
2022-08-26T22:57:26.463Z,5.80
2022-08-26T22:59:58.601Z,7.20
2022-08-26T23:02:29.991Z,7.13
2022-08-26T23:04:57.741Z,7.05
2022-08-26T23:07:25.460Z,6.72
2022-08-26T23:09:58.500Z,7.65
2022-08-26T23:12:27.804Z,7.18
2022-08-26T23:14:59.089Z,6.85
2022-08-26T23:17:26.789Z,7.30
2022-08-26T23:19:55.363Z,7.47
2022-08-26T23:22:23.040Z,7.43
2022-08-26T23:24:51.024Z,7.75
2022-08-26T23:28:03.972Z,7.20
2022-08-26T23:30:33.898Z,7.50
2022-08-26T23:33:01.604Z,6.97
2022-08-26T23:35:30.066Z,7.13
2022-08-26T23:38:00.968Z,6.68
2022-08-26T23:40:34.782Z,7.00
2022-08-26T23:43:08.001Z,7.07
2022-08-26T23:45:36.011Z,6.95
2022-08-26T23:48:04.618Z,6.85
2022-08-26T23:50:51.047Z,6.85
2022-08-26T23:53:21.404Z,6.90
2022-08-26T23:55:53.154Z,7.10
2022-08-26T23:58:21.582Z,6.70
